sensor_id;sensor_type;location;lat;lon;timestamp;pressure;altitude;pressure_sealevel;temperature;humidity
47080;BME280;33067;49.296;14.470;2023-05-01T00:01:38;97256.34;;;11.49;36.41
47080;BME280;33067;49.296;14.470;2023-05-01T00:04:03;97250.50;;;11.23;36.88
47080;BME280;33067;49.296;14.470;2023-05-01T00:06:29;97245.71;;;11.37;36.65
47080;BME280;33067;49.296;14.470;2023-05-01T00:08:54;97247.31;;;11.43;36.44
47080;BME280;33067;49.296;14.470;2023-05-01T00:11:20;97244.39;;;11.76;36.16
47080;BME280;33067;49.296;14.470;2023-05-01T00:13:45;97245.45;;;11.77;36.65
47080;BME280;33067;49.296;14.470;2023-05-01T00:16:11;97242.34;;;11.70;36.60
47080;BME280;33067;49.296;14.470;2023-05-01T00:18:37;97239.44;;;11.25;36.65
47080;BME280;33067;49.296;14.470;2023-05-01T00:21:02;97233.48;;;11.31;36.53
47080;BME280;33067;49.296;14.470;2023-05-01T00:23:27;97230.97;;;11.67;36.53
47080;BME280;33067;49.296;14.470;2023-05-01T00:25:53;97230.93;;;11.51;37.23
47080;BME280;33067;49.296;14.470;2023-05-01T00:28:18;97228.83;;;12.01;37.00
47080;BME280;33067;49.296;14.470;2023-05-01T00:30:44;97226.01;;;11.38;37.49
47080;BME280;33067;49.296;14.470;2023-05-01T00:33:09;97222.62;;;11.77;36.91
47080;BME280;33067;49.296;14.470;2023-05-01T00:35:35;97217.36;;;12.10;37.02
47080;BME280;33067;49.296;14.470;2023-05-01T00:38:00;97214.89;;;11.76;37.11
47080;BME280;33067;49.296;14.470;2023-05-01T00:40:25;97211.26;;;11.70;37.44
47080;BME280;33067;49.296;14.470;2023-05-01T00:42:51;97210.31;;;11.82;37.32
47080;BME280;33067;49.296;14.470;2023-05-01T00:45:16;97208.87;;;11.54;37.32
47080;BME280;33067;49.296;14.470;2023-05-01T00:47:41;97208.09;;;11.60;37.41
47080;BME280;33067;49.296;14.470;2023-05-01T00:50:07;97210.25;;;11.61;37.40
47080;BME280;33067;49.296;14.470;2023-05-01T00:52:32;97212.47;;;11.29;37.61
47080;BME280;33067;49.296;14.470;2023-05-01T00:54:58;97212.12;;;11.63;37.24
47080;BME280;33067;49.296;14.470;2023-05-01T00:57:22;97216.05;;;11.18;37.67
47080;BME280;33067;49.296;14.470;2023-05-01T00:59:48;97213.54;;;11.69;37.66
47080;BME280;33067;49.296;14.470;2023-05-01T01:02:14;97211.38;;;11.78;37.23
47080;BME280;33067;49.296;14.470;2023-05-01T01:04:41;97209.18;;;11.47;37.65
47080;BME280;33067;49.296;14.470;2023-05-01T01:07:10;97210.54;;;11.48;37.40
47080;BME280;33067;49.296;14.470;2023-05-01T01:09:39;97214.88;;;11.30;37.60
47080;BME280;33067;49.296;14.470;2023-05-01T01:12:05;97214.71;;;11.30;37.69
47080;BME280;33067;49.296;14.470;2023-05-01T01:14:27;97212.20;;;11.51;37.26
47080;BME280;33067;49.296;14.470;2023-05-01T01:16:53;97209.66;;;10.82;37.77
47080;BME280;33067;49.296;14.470;2023-05-01T01:19:36;97212.77;;;11.12;37.38
47080;BME280;33067;49.296;14.470;2023-05-01T01:21:41;97211.93;;;11.22;37.52
47080;BME280;33067;49.296;14.470;2023-05-01T01:24:15;97216.27;;;11.08;37.27
47080;BME280;33067;49.296;14.470;2023-05-01T01:26:38;97216.09;;;11.33;37.31
47080;BME280;33067;49.296;14.470;2023-05-01T01:29:03;97213.42;;;11.17;37.42
47080;BME280;33067;49.296;14.470;2023-05-01T01:31:24;97207.57;;;11.08;37.46
47080;BME280;33067;49.296;14.470;2023-05-01T01:33:53;97198.38;;;11.34;37.21
47080;BME280;33067;49.296;14.470;2023-05-01T01:36:18;97194.91;;;11.33;37.41
47080;BME280;33067;49.296;14.470;2023-05-01T01:38:44;97199.47;;;11.07;37.78
47080;BME280;33067;49.296;14.470;2023-05-01T01:41:09;97206.13;;;10.98;37.99
47080;BME280;33067;49.296;14.470;2023-05-01T01:43:36;97204.86;;;9.49;37.86
47080;BME280;33067;49.296;14.470;2023-05-01T01:45:58;97202.89;;;11.42;37.20
47080;BME280;33067;49.296;14.470;2023-05-01T01:48:23;97202.46;;;11.01;38.09
47080;BME280;33067;49.296;14.470;2023-05-01T01:50:46;97200.08;;;11.01;38.40
47080;BME280;33067;49.296;14.470;2023-05-01T01:53:13;97201.35;;;11.15;38.54
47080;BME280;33067;49.296;14.470;2023-05-01T01:55:37;97201.41;;;10.36;39.22
47080;BME280;33067;49.296;14.470;2023-05-01T01:58:02;97198.10;;;10.22;39.42
47080;BME280;33067;49.296;14.470;2023-05-01T02:00:28;97193.69;;;10.04;39.73
47080;BME280;33067;49.296;14.470;2023-05-01T02:02:51;97187.53;;;9.98;40.01
47080;BME280;33067;49.296;14.470;2023-05-01T02:05:18;97186.65;;;9.98;39.74
47080;BME280;33067;49.296;14.470;2023-05-01T02:07:47;97184.16;;;10.11;39.75
47080;BME280;33067;49.296;14.470;2023-05-01T02:13:02;97181.27;;;10.32;39.79
47080;BME280;33067;49.296;14.470;2023-05-01T02:15:27;97173.75;;;10.41;39.88
47080;BME280;33067;49.296;14.470;2023-05-01T02:17:51;97170.65;;;10.22;39.88
47080;BME280;33067;49.296;14.470;2023-05-01T02:20:17;97170.53;;;9.93;39.83
47080;BME280;33067;49.296;14.470;2023-05-01T02:22:43;97166.76;;;10.09;40.30
47080;BME280;33067;49.296;14.470;2023-05-01T02:25:09;97165.47;;;10.03;40.55
47080;BME280;33067;49.296;14.470;2023-05-01T02:27:37;97159.67;;;9.35;41.23
47080;BME280;33067;49.296;14.470;2023-05-01T02:29:59;97160.91;;;8.72;41.44
47080;BME280;33067;49.296;14.470;2023-05-01T02:32:25;97158.01;;;9.16;41.12
47080;BME280;33067;49.296;14.470;2023-05-01T02:34:50;97161.44;;;9.72;40.61
47080;BME280;33067;49.296;14.470;2023-05-01T02:37:15;97157.88;;;9.18;40.57
47080;BME280;33067;49.296;14.470;2023-05-01T02:39:40;97154.40;;;9.05;40.31
47080;BME280;33067;49.296;14.470;2023-05-01T02:42:07;97151.29;;;9.27;40.23
47080;BME280;33067;49.296;14.470;2023-05-01T02:44:37;97149.86;;;8.53;40.68
47080;BME280;33067;49.296;14.470;2023-05-01T02:46:58;97144.05;;;9.09;40.57
47080;BME280;33067;49.296;14.470;2023-05-01T02:49:22;97141.75;;;8.79;40.38
47080;BME280;33067;49.296;14.470;2023-05-01T02:51:47;97138.91;;;9.14;40.73
47080;BME280;33067;49.296;14.470;2023-05-01T02:54:13;97138.63;;;8.91;41.28
47080;BME280;33067;49.296;14.470;2023-05-01T02:56:38;97134.50;;;9.20;40.96
47080;BME280;33067;49.296;14.470;2023-05-01T02:59:03;97133.18;;;9.31;40.91
47080;BME280;33067;49.296;14.470;2023-05-01T03:01:28;97127.70;;;9.52;40.56
47080;BME280;33067;49.296;14.470;2023-05-01T03:03:55;97127.47;;;8.89;41.05
47080;BME280;33067;49.296;14.470;2023-05-01T03:06:18;97129.65;;;9.37;40.30
47080;BME280;33067;49.296;14.470;2023-05-01T03:08:44;97128.37;;;8.39;41.42
47080;BME280;33067;49.296;14.470;2023-05-01T03:11:09;97128.47;;;8.53;40.88
47080;BME280;33067;49.296;14.470;2023-05-01T03:13:35;97125.44;;;8.62;40.71
47080;BME280;33067;49.296;14.470;2023-05-01T03:16:01;97120.03;;;8.23;40.61
47080;BME280;33067;49.296;14.470;2023-05-01T03:18:26;97117.39;;;8.31;40.74
47080;BME280;33067;49.296;14.470;2023-05-01T03:20:52;97123.36;;;7.92;41.14
47080;BME280;33067;49.296;14.470;2023-05-01T03:23:16;97127.04;;;8.54;40.97
47080;BME280;33067;49.296;14.470;2023-05-01T03:25:42;97126.78;;;8.62;40.80
47080;BME280;33067;49.296;14.470;2023-05-01T03:28:07;97127.59;;;8.61;40.81
47080;BME280;33067;49.296;14.470;2023-05-01T03:30:33;97127.17;;;8.50;40.81
47080;BME280;33067;49.296;14.470;2023-05-01T03:32:58;97127.72;;;8.08;40.90
47080;BME280;33067;49.296;14.470;2023-05-01T03:35:23;97129.16;;;8.28;41.52
47080;BME280;33067;49.296;14.470;2023-05-01T03:37:49;97130.69;;;8.31;41.69
47080;BME280;33067;49.296;14.470;2023-05-01T03:40:14;97125.18;;;8.57;41.02
47080;BME280;33067;49.296;14.470;2023-05-01T03:42:40;97127.85;;;8.47;41.60
47080;BME280;33067;49.296;14.470;2023-05-01T03:45:07;97126.25;;;8.48;41.78
47080;BME280;33067;49.296;14.470;2023-05-01T03:47:31;97128.94;;;8.69;41.78
47080;BME280;33067;49.296;14.470;2023-05-01T03:49:56;97124.95;;;8.24;41.50
47080;BME280;33067;49.296;14.470;2023-05-01T03:52:21;97130.19;;;9.03;41.10
47080;BME280;33067;49.296;14.470;2023-05-01T03:54:47;97126.19;;;8.78;40.64
47080;BME280;33067;49.296;14.470;2023-05-01T03:57:13;97125.75;;;8.78;40.34
47080;BME280;33067;49.296;14.470;2023-05-01T03:59:38;97130.55;;;8.88;40.33
47080;BME280;33067;49.296;14.470;2023-05-01T04:02:03;97131.12;;;8.86;40.08
47080;BME280;33067;49.296;14.470;2023-05-01T04:04:29;97132.79;;;9.03;39.92
47080;BME280;33067;49.296;14.470;2023-05-01T04:06:54;97132.98;;;8.65;40.35
47080;BME280;33067;49.296;14.470;2023-05-01T04:09:21;97136.48;;;9.05;40.07
47080;BME280;33067;49.296;14.470;2023-05-01T04:11:45;97131.77;;;9.10;40.12
47080;BME280;33067;49.296;14.470;2023-05-01T04:14:10;97132.69;;;8.96;40.35
47080;BME280;33067;49.296;14.470;2023-05-01T04:16:36;97130.51;;;9.07;40.14
47080;BME280;33067;49.296;14.470;2023-05-01T04:19:02;97127.52;;;9.12;40.22
47080;BME280;33067;49.296;14.470;2023-05-01T04:21:27;97128.92;;;9.48;40.25
47080;BME280;33067;49.296;14.470;2023-05-01T04:23:52;97126.92;;;9.69;39.93
47080;BME280;33067;49.296;14.470;2023-05-01T04:26:18;97132.33;;;9.07;40.17
47080;BME280;33067;49.296;14.470;2023-05-01T04:28:44;97130.20;;;9.40;40.19
47080;BME280;33067;49.296;14.470;2023-05-01T04:31:09;97133.05;;;9.09;39.91
47080;BME280;33067;49.296;14.470;2023-05-01T04:33:35;97130.26;;;9.06;40.20
47080;BME280;33067;49.296;14.470;2023-05-01T04:36:00;97133.33;;;9.13;40.34
47080;BME280;33067;49.296;14.470;2023-05-01T04:38:26;97129.72;;;9.22;40.34
47080;BME280;33067;49.296;14.470;2023-05-01T04:40:51;97129.99;;;9.09;40.79
47080;BME280;33067;49.296;14.470;2023-05-01T04:43:16;97132.56;;;9.26;40.27
47080;BME280;33067;49.296;14.470;2023-05-01T04:45:42;97130.46;;;9.57;40.48
47080;BME280;33067;49.296;14.470;2023-05-01T04:48:07;97132.57;;;9.69;40.89
47080;BME280;33067;49.296;14.470;2023-05-01T04:50:34;97133.72;;;9.76;40.58
47080;BME280;33067;49.296;14.470;2023-05-01T04:52:58;97138.00;;;10.66;39.70
47080;BME280;33067;49.296;14.470;2023-05-01T04:55:24;97140.59;;;10.12;39.25
47080;BME280;33067;49.296;14.470;2023-05-01T04:57:49;97142.06;;;10.25;38.49
47080;BME280;33067;49.296;14.470;2023-05-01T05:00:14;97140.01;;;10.11;38.14
47080;BME280;33067;49.296;14.470;2023-05-01T05:02:39;97139.04;;;9.97;38.16
47080;BME280;33067;49.296;14.470;2023-05-01T05:05:05;97138.81;;;10.61;37.50
47080;BME280;33067;49.296;14.470;2023-05-01T05:07:30;97132.69;;;9.71;38.27
47080;BME280;33067;49.296;14.470;2023-05-01T05:09:56;97130.36;;;10.05;38.52
47080;BME280;33067;49.296;14.470;2023-05-01T05:12:22;97128.60;;;10.06;38.51
47080;BME280;33067;49.296;14.470;2023-05-01T05:14:47;97130.86;;;10.38;38.39
47080;BME280;33067;49.296;14.470;2023-05-01T05:17:13;97127.03;;;10.82;38.13
47080;BME280;33067;49.296;14.470;2023-05-01T05:19:39;97116.57;;;11.26;36.89
47080;BME280;33067;49.296;14.470;2023-05-01T05:22:04;97116.98;;;11.67;36.62
47080;BME280;33067;49.296;14.470;2023-05-01T05:24:31;97117.87;;;11.31;36.36
47080;BME280;33067;49.296;14.470;2023-05-01T05:26:55;97117.94;;;11.08;37.20
47080;BME280;33067;49.296;14.470;2023-05-01T05:29:21;97115.07;;;10.95;36.88
47080;BME280;33067;49.296;14.470;2023-05-01T05:31:46;97109.59;;;11.05;36.86
47080;BME280;33067;49.296;14.470;2023-05-01T05:34:11;97106.83;;;11.20;37.08
47080;BME280;33067;49.296;14.470;2023-05-01T05:36:37;97112.37;;;11.47;36.72
47080;BME280;33067;49.296;14.470;2023-05-01T05:39:02;97109.59;;;11.90;35.81
47080;BME280;33067;49.296;14.470;2023-05-01T05:41:27;97112.73;;;12.04;35.75
47080;BME280;33067;49.296;14.470;2023-05-01T05:43:52;97109.68;;;11.86;35.63
47080;BME280;33067;49.296;14.470;2023-05-01T05:46:18;97104.66;;;12.16;36.25
47080;BME280;33067;49.296;14.470;2023-05-01T05:48:43;97107.97;;;12.27;35.43
47080;BME280;33067;49.296;14.470;2023-05-01T05:51:08;97104.70;;;12.75;34.27
47080;BME280;33067;49.296;14.470;2023-05-01T05:53:34;97102.30;;;13.30;33.19
47080;BME280;33067;49.296;14.470;2023-05-01T05:55:59;97101.84;;;14.03;32.36
47080;BME280;33067;49.296;14.470;2023-05-01T05:58:25;97096.39;;;15.00;31.99
47080;BME280;33067;49.296;14.470;2023-05-01T06:00:50;97096.66;;;15.06;30.68
47080;BME280;33067;49.296;14.470;2023-05-01T06:03:16;97086.26;;;14.82;30.79
47080;BME280;33067;49.296;14.470;2023-05-01T06:05:42;97082.80;;;15.04;29.78
47080;BME280;33067;49.296;14.470;2023-05-01T06:08:06;97079.60;;;14.80;29.87
47080;BME280;33067;49.296;14.470;2023-05-01T06:10:32;97076.11;;;14.24;28.21
47080;BME280;33067;49.296;14.470;2023-05-01T06:12:57;97078.25;;;14.10;29.82
47080;BME280;33067;49.296;14.470;2023-05-01T06:15:23;97076.07;;;14.36;30.43
47080;BME280;33067;49.296;14.470;2023-05-01T06:17:49;97071.86;;;14.65;29.89
47080;BME280;33067;49.296;14.470;2023-05-01T06:20:14;97067.94;;;14.39;29.79
47080;BME280;33067;49.296;14.470;2023-05-01T06:22:39;97061.82;;;14.76;29.61
47080;BME280;33067;49.296;14.470;2023-05-01T06:25:06;97058.09;;;15.17;29.09
47080;BME280;33067;49.296;14.470;2023-05-01T06:27:32;97059.16;;;13.46;29.09
47080;BME280;33067;49.296;14.470;2023-05-01T06:29:57;97057.89;;;14.09;29.72
47080;BME280;33067;49.296;14.470;2023-05-01T06:32:22;97057.84;;;14.32;28.88
47080;BME280;33067;49.296;14.470;2023-05-01T06:34:48;97051.44;;;13.75;29.68
47080;BME280;33067;49.296;14.470;2023-05-01T06:37:14;97054.40;;;13.76;29.67
47080;BME280;33067;49.296;14.470;2023-05-01T06:39:40;97049.66;;;13.83;30.13
47080;BME280;33067;49.296;14.470;2023-05-01T06:42:05;97051.67;;;13.39;30.09
47080;BME280;33067;49.296;14.470;2023-05-01T06:44:30;97050.69;;;12.94;30.68
47080;BME280;33067;49.296;14.470;2023-05-01T06:46:55;97045.56;;;12.80;30.53
47080;BME280;33067;49.296;14.470;2023-05-01T06:49:21;97041.80;;;12.73;30.51
47080;BME280;33067;49.296;14.470;2023-05-01T06:51:47;97042.06;;;13.49;30.91
47080;BME280;33067;49.296;14.470;2023-05-01T06:54:11;97047.76;;;12.93;31.01
47080;BME280;33067;49.296;14.470;2023-05-01T06:56:37;97036.05;;;13.06;30.62
47080;BME280;33067;49.296;14.470;2023-05-01T06:59:02;97036.13;;;13.04;30.28
47080;BME280;33067;49.296;14.470;2023-05-01T07:01:28;97035.80;;;12.30;30.60
47080;BME280;33067;49.296;14.470;2023-05-01T07:03:54;97036.01;;;12.60;30.50
47080;BME280;33067;49.296;14.470;2023-05-01T07:06:20;97030.44;;;12.43;30.69
47080;BME280;33067;49.296;14.470;2023-05-01T07:08:43;97027.50;;;13.26;30.58
47080;BME280;33067;49.296;14.470;2023-05-01T07:11:09;97022.54;;;14.72;29.48
47080;BME280;33067;49.296;14.470;2023-05-01T07:13:34;97017.16;;;14.66;28.49
47080;BME280;33067;49.296;14.470;2023-05-01T07:15:59;97020.02;;;14.47;29.10
47080;BME280;33067;49.296;14.470;2023-05-01T07:18:25;97015.36;;;13.93;29.39
47080;BME280;33067;49.296;14.470;2023-05-01T07:20:50;97015.20;;;13.85;29.17
47080;BME280;33067;49.296;14.470;2023-05-01T07:23:15;97009.78;;;14.48;29.10
47080;BME280;33067;49.296;14.470;2023-05-01T07:25:43;97001.73;;;14.05;28.74
47080;BME280;33067;49.296;14.470;2023-05-01T07:28:06;97004.76;;;14.31;28.53
47080;BME280;33067;49.296;14.470;2023-05-01T07:30:32;97007.72;;;13.58;29.01
47080;BME280;33067;49.296;14.470;2023-05-01T07:32:57;97005.76;;;14.22;28.76
47080;BME280;33067;49.296;14.470;2023-05-01T07:35:22;97003.52;;;13.97;28.78
47080;BME280;33067;49.296;14.470;2023-05-01T07:37:48;96994.32;;;13.55;29.11
47080;BME280;33067;49.296;14.470;2023-05-01T07:40:13;96998.68;;;13.68;28.63
47080;BME280;33067;49.296;14.470;2023-05-01T07:42:39;96986.71;;;13.20;29.90
47080;BME280;33067;49.296;14.470;2023-05-01T07:45:06;96991.67;;;13.21;30.44
47080;BME280;33067;49.296;14.470;2023-05-01T07:47:32;96986.28;;;13.21;29.34
47080;BME280;33067;49.296;14.470;2023-05-01T07:49:56;96979.78;;;14.27;28.22
47080;BME280;33067;49.296;14.470;2023-05-01T07:52:22;96974.29;;;14.37;28.21
47080;BME280;33067;49.296;14.470;2023-05-01T07:54:48;96966.58;;;15.01;27.76
47080;BME280;33067;49.296;14.470;2023-05-01T07:57:12;96966.03;;;14.91;27.34
47080;BME280;33067;49.296;14.470;2023-05-01T07:59:38;96961.92;;;15.48;27.27
47080;BME280;33067;49.296;14.470;2023-05-01T08:02:03;96961.93;;;15.51;27.31
47080;BME280;33067;49.296;14.470;2023-05-01T08:04:28;96959.10;;;16.22;26.57
47080;BME280;33067;49.296;14.470;2023-05-01T08:06:53;96959.47;;;15.70;25.97
47080;BME280;33067;49.296;14.470;2023-05-01T08:09:19;96957.41;;;15.20;26.49
47080;BME280;33067;49.296;14.470;2023-05-01T08:11:44;96949.66;;;15.49;26.96
47080;BME280;33067;49.296;14.470;2023-05-01T08:14:09;96958.17;;;14.88;27.04
47080;BME280;33067;49.296;14.470;2023-05-01T08:16:35;96950.36;;;15.75;26.49
47080;BME280;33067;49.296;14.470;2023-05-01T08:19:01;96949.48;;;15.99;25.82
47080;BME280;33067;49.296;14.470;2023-05-01T08:21:25;96942.72;;;15.44;26.53
47080;BME280;33067;49.296;14.470;2023-05-01T08:23:53;96950.05;;;15.29;25.97
47080;BME280;33067;49.296;14.470;2023-05-01T08:26:16;96945.56;;;14.45;26.95
47080;BME280;33067;49.296;14.470;2023-05-01T08:28:41;96941.22;;;14.33;27.56
47080;BME280;33067;49.296;14.470;2023-05-01T08:31:07;96937.72;;;14.52;26.90
47080;BME280;33067;49.296;14.470;2023-05-01T08:33:32;96937.53;;;14.60;27.67
47080;BME280;33067;49.296;14.470;2023-05-01T08:35:58;96923.45;;;14.98;26.75
47080;BME280;33067;49.296;14.470;2023-05-01T08:38:22;96924.28;;;15.49;26.86
47080;BME280;33067;49.296;14.470;2023-05-01T08:40:51;96918.84;;;15.75;26.27
47080;BME280;33067;49.296;14.470;2023-05-01T08:43:13;96933.18;;;15.58;25.69
47080;BME280;33067;49.296;14.470;2023-05-01T08:45:39;96916.44;;;15.62;25.44
47080;BME280;33067;49.296;14.470;2023-05-01T08:48:05;96922.68;;;14.46;24.99
47080;BME280;33067;49.296;14.470;2023-05-01T08:50:29;96913.61;;;16.10;24.79
47080;BME280;33067;49.296;14.470;2023-05-01T08:52:55;96905.35;;;16.04;24.90
47080;BME280;33067;49.296;14.470;2023-05-01T08:55:20;96902.66;;;16.83;24.50
47080;BME280;33067;49.296;14.470;2023-05-01T08:57:46;96901.03;;;16.09;24.17
47080;BME280;33067;49.296;14.470;2023-05-01T09:00:16;96910.76;;;14.86;25.20
47080;BME280;33067;49.296;14.470;2023-05-01T09:02:37;96902.43;;;14.98;24.84
47080;BME280;33067;49.296;14.470;2023-05-01T09:05:01;96895.99;;;14.25;25.31
47080;BME280;33067;49.296;14.470;2023-05-01T09:07:26;96892.07;;;15.23;24.53
47080;BME280;33067;49.296;14.470;2023-05-01T09:09:51;96892.08;;;15.16;24.64
47080;BME280;33067;49.296;14.470;2023-05-01T09:12:21;96886.60;;;15.66;24.65
47080;BME280;33067;49.296;14.470;2023-05-01T09:14:41;96882.65;;;16.06;24.47
47080;BME280;33067;49.296;14.470;2023-05-01T09:17:06;96877.92;;;16.18;24.86
47080;BME280;33067;49.296;14.470;2023-05-01T09:19:32;96881.56;;;16.18;23.84
47080;BME280;33067;49.296;14.470;2023-05-01T09:21:57;96888.99;;;16.69;22.98
47080;BME280;33067;49.296;14.470;2023-05-01T09:24:23;96877.91;;;15.72;23.86
47080;BME280;33067;49.296;14.470;2023-05-01T09:26:48;96873.69;;;16.43;23.60
47080;BME280;33067;49.296;14.470;2023-05-01T09:31:38;96869.52;;;16.90;23.45
47080;BME280;33067;49.296;14.470;2023-05-01T09:34:04;96874.80;;;17.41;22.57
47080;BME280;33067;49.296;14.470;2023-05-01T09:36:30;96870.53;;;16.67;24.02
47080;BME280;33067;49.296;14.470;2023-05-01T09:38:54;96864.68;;;16.56;24.11
47080;BME280;33067;49.296;14.470;2023-05-01T09:41:20;96857.93;;;16.98;23.43
47080;BME280;33067;49.296;14.470;2023-05-01T09:43:49;96857.24;;;16.97;23.57
47080;BME280;33067;49.296;14.470;2023-05-01T09:46:10;96850.34;;;17.76;22.21
47080;BME280;33067;49.296;14.470;2023-05-01T09:48:36;96844.70;;;17.90;22.35
47080;BME280;33067;49.296;14.470;2023-05-01T09:51:00;96839.46;;;18.00;22.58
47080;BME280;33067;49.296;14.470;2023-05-01T09:53:37;96839.84;;;18.14;23.18
47080;BME280;33067;49.296;14.470;2023-05-01T09:55:59;96832.29;;;18.09;23.01
47080;BME280;33067;49.296;14.470;2023-05-01T09:58:25;96832.27;;;18.49;22.53
47080;BME280;33067;49.296;14.470;2023-05-01T10:00:47;96828.77;;;18.91;22.05
47080;BME280;33067;49.296;14.470;2023-05-01T10:03:12;96829.59;;;18.60;22.41
47080;BME280;33067;49.296;14.470;2023-05-01T10:05:41;96829.18;;;17.84;22.89
47080;BME280;33067;49.296;14.470;2023-05-01T10:07:59;96822.72;;;18.22;23.61
47080;BME280;33067;49.296;14.470;2023-05-01T10:10:22;96814.27;;;18.37;22.68
47080;BME280;33067;49.296;14.470;2023-05-01T10:12:48;96817.72;;;18.89;24.13
47080;BME280;33067;49.296;14.470;2023-05-01T10:15:14;96822.66;;;19.40;22.86
47080;BME280;33067;49.296;14.470;2023-05-01T10:17:40;96814.84;;;19.38;22.52
47080;BME280;33067;49.296;14.470;2023-05-01T10:20:05;96814.90;;;19.46;22.36
47080;BME280;33067;49.296;14.470;2023-05-01T10:22:29;96806.85;;;19.16;21.93
47080;BME280;33067;49.296;14.470;2023-05-01T10:24:55;96810.38;;;18.94;23.56
47080;BME280;33067;49.296;14.470;2023-05-01T10:27:22;96797.83;;;19.51;23.76
47080;BME280;33067;49.296;14.470;2023-05-01T10:29:45;96797.06;;;19.01;23.90
47080;BME280;33067;49.296;14.470;2023-05-01T10:32:11;96793.06;;;18.94;24.20
47080;BME280;33067;49.296;14.470;2023-05-01T10:34:38;96780.19;;;18.56;24.28
47080;BME280;33067;49.296;14.470;2023-05-01T10:37:05;96773.12;;;18.61;24.31
47080;BME280;33067;49.296;14.470;2023-05-01T10:39:29;96771.43;;;18.48;24.64
47080;BME280;33067;49.296;14.470;2023-05-01T10:42:02;96773.71;;;18.50;25.07
47080;BME280;33067;49.296;14.470;2023-05-01T10:44:21;96771.73;;;17.48;26.02
47080;BME280;33067;49.296;14.470;2023-05-01T10:46:41;96785.13;;;17.40;26.49
47080;BME280;33067;49.296;14.470;2023-05-01T10:49:06;96774.30;;;16.94;27.46
47080;BME280;33067;49.296;14.470;2023-05-01T10:51:32;96777.14;;;16.98;27.94
47080;BME280;33067;49.296;14.470;2023-05-01T10:58:56;96762.41;;;17.27;26.22
47080;BME280;33067;49.296;14.470;2023-05-01T11:01:28;96757.49;;;17.32;27.29
47080;BME280;33067;49.296;14.470;2023-05-01T11:03:38;96745.10;;;17.59;26.62
47080;BME280;33067;49.296;14.470;2023-05-01T11:06:05;96745.14;;;18.13;25.78
47080;BME280;33067;49.296;14.470;2023-05-01T11:08:29;96747.43;;;18.50;25.70
47080;BME280;33067;49.296;14.470;2023-05-01T11:10:53;96742.39;;;18.70;24.69
47080;BME280;33067;49.296;14.470;2023-05-01T11:15:43;96752.49;;;19.15;25.16
47080;BME280;33067;49.296;14.470;2023-05-01T11:18:08;96747.04;;;18.31;26.35
47080;BME280;33067;49.296;14.470;2023-05-01T11:20:44;96745.62;;;18.34;25.84
47080;BME280;33067;49.296;14.470;2023-05-01T11:22:58;96726.24;;;17.86;26.21
47080;BME280;33067;49.296;14.470;2023-05-01T11:25:25;96742.23;;;18.04;26.18
47080;BME280;33067;49.296;14.470;2023-05-01T11:27:50;96738.42;;;18.42;26.54
47080;BME280;33067;49.296;14.470;2023-05-01T11:30:14;96731.61;;;17.81;26.76
47080;BME280;33067;49.296;14.470;2023-05-01T11:32:42;96726.80;;;18.05;27.10
47080;BME280;33067;49.296;14.470;2023-05-01T11:35:05;96722.76;;;17.83;27.02
47080;BME280;33067;49.296;14.470;2023-05-01T11:37:38;96716.19;;;18.62;25.99
47080;BME280;33067;49.296;14.470;2023-05-01T11:39:54;96713.62;;;19.14;25.87
47080;BME280;33067;49.296;14.470;2023-05-01T11:42:20;96714.39;;;19.53;26.03
47080;BME280;33067;49.296;14.470;2023-05-01T11:47:10;96707.09;;;19.27;26.43
47080;BME280;33067;49.296;14.470;2023-05-01T11:49:35;96700.41;;;19.32;25.62
47080;BME280;33067;49.296;14.470;2023-05-01T11:52:00;96676.22;;;18.40;26.26
47080;BME280;33067;49.296;14.470;2023-05-01T11:54:26;96688.64;;;18.60;26.90
47080;BME280;33067;49.296;14.470;2023-05-01T11:56:57;96690.20;;;18.73;25.61
47080;BME280;33067;49.296;14.470;2023-05-01T11:59:16;96688.94;;;18.72;25.92
47080;BME280;33067;49.296;14.470;2023-05-01T12:01:42;96697.54;;;18.63;26.15
47080;BME280;33067;49.296;14.470;2023-05-01T12:04:07;96693.39;;;18.05;26.20
47080;BME280;33067;49.296;14.470;2023-05-01T12:06:35;96685.87;;;18.76;25.49
47080;BME280;33067;49.296;14.470;2023-05-01T12:08:57;96691.35;;;19.22;24.84
47080;BME280;33067;49.296;14.470;2023-05-01T12:11:21;96696.01;;;18.82;26.05
47080;BME280;33067;49.296;14.470;2023-05-01T12:13:46;96691.01;;;18.38;26.00
47080;BME280;33067;49.296;14.470;2023-05-01T12:16:11;96694.05;;;19.30;25.44
47080;BME280;33067;49.296;14.470;2023-05-01T12:18:37;96684.06;;;18.74;25.91
47080;BME280;33067;49.296;14.470;2023-05-01T12:21:01;96688.40;;;18.79;25.64
47080;BME280;33067;49.296;14.470;2023-05-01T12:23:33;96684.97;;;19.61;25.22
47080;BME280;33067;49.296;14.470;2023-05-01T12:25:52;96690.74;;;19.85;26.11
47080;BME280;33067;49.296;14.470;2023-05-01T12:28:18;96692.87;;;18.86;26.55
47080;BME280;33067;49.296;14.470;2023-05-01T12:30:43;96684.46;;;18.94;27.21
47080;BME280;33067;49.296;14.470;2023-05-01T12:33:09;96682.96;;;18.83;27.49
47080;BME280;33067;49.296;14.470;2023-05-01T12:35:32;96682.90;;;18.11;28.26
47080;BME280;33067;49.296;14.470;2023-05-01T12:37:57;96669.66;;;18.81;28.04
47080;BME280;33067;49.296;14.470;2023-05-01T12:40:23;96671.25;;;18.54;27.99
47080;BME280;33067;49.296;14.470;2023-05-01T12:42:54;96677.16;;;18.65;26.85
47080;BME280;33067;49.296;14.470;2023-05-01T12:45:13;96677.53;;;18.51;27.29
47080;BME280;33067;49.296;14.470;2023-05-01T12:47:38;96668.98;;;18.77;26.31
47080;BME280;33067;49.296;14.470;2023-05-01T12:50:05;96667.33;;;18.95;27.03
47080;BME280;33067;49.296;14.470;2023-05-01T12:52:29;96673.69;;;18.88;27.99
47080;BME280;33067;49.296;14.470;2023-05-01T12:55:00;96677.66;;;18.92;28.06
47080;BME280;33067;49.296;14.470;2023-05-01T12:57:19;96667.90;;;19.42;27.16